createdAt,value
2023-03-24T00:00:19.061Z,566.00
2023-03-24T00:01:09.119Z,572.00
2023-03-24T00:01:59.200Z,576.00
2023-03-24T00:02:49.317Z,565.00
2023-03-24T00:03:39.452Z,557.00
2023-03-24T00:04:29.399Z,551.00
2023-03-24T00:05:19.387Z,567.00
2023-03-24T00:06:09.417Z,558.00
2023-03-24T00:06:59.741Z,557.00
2023-03-24T00:08:39.880Z,556.00
2023-03-24T00:09:29.901Z,542.00
2023-03-24T00:10:19.952Z,547.00
2023-03-24T00:11:10.008Z,541.00
2023-03-24T00:12:00.113Z,538.00
2023-03-24T00:12:50.171Z,541.00
2023-03-24T00:13:40.238Z,545.00
2023-03-24T00:14:30.233Z,536.00
2023-03-24T00:15:20.307Z,535.00
2023-03-24T00:16:10.415Z,539.00
2023-03-24T00:17:00.704Z,539.00
2023-03-24T00:17:50.827Z,535.00
2023-03-24T00:18:40.936Z,529.00
2023-03-24T00:19:31.129Z,531.00
2023-03-24T00:20:21.204Z,532.00
2023-03-24T00:21:11.267Z,534.00
2023-03-24T00:22:01.329Z,528.00
2023-03-24T00:22:51.386Z,542.00
2023-03-24T00:23:41.468Z,540.00
2023-03-24T00:24:31.478Z,541.00
2023-03-24T00:25:21.545Z,537.00
2023-03-24T00:26:11.610Z,536.00
2023-03-24T00:27:01.687Z,533.00
2023-03-24T00:27:51.725Z,525.00
2023-03-24T00:28:42.022Z,523.00
2023-03-24T00:29:32.046Z,520.00
2023-03-24T00:30:22.127Z,521.00
2023-03-24T00:31:12.454Z,526.00
2023-03-24T00:32:02.479Z,521.00
2023-03-24T00:32:52.593Z,511.00
2023-03-24T00:33:42.892Z,516.00
2023-03-24T00:34:32.946Z,508.00
2023-03-24T00:35:23.000Z,510.00
2023-03-24T00:36:13.135Z,511.00
2023-03-24T00:37:03.139Z,515.00
2023-03-24T00:37:53.213Z,518.00
2023-03-24T00:38:43.308Z,522.00
2023-03-24T00:39:33.333Z,521.00
2023-03-24T00:40:23.402Z,514.00
2023-03-24T00:41:13.463Z,521.00
2023-03-24T00:42:03.543Z,514.00
2023-03-24T00:42:53.817Z,511.00
2023-03-24T00:43:43.904Z,507.00
2023-03-24T00:44:33.930Z,510.00
2023-03-24T00:45:24.093Z,513.00
2023-03-24T00:46:14.071Z,510.00
2023-03-24T00:47:04.156Z,509.00
2023-03-24T00:47:54.660Z,511.00
2023-03-24T00:48:44.224Z,505.00
2023-03-24T00:49:34.241Z,505.00
2023-03-24T00:50:24.344Z,500.00
2023-03-24T00:51:14.336Z,508.00
2023-03-24T00:52:04.419Z,509.00
2023-03-24T00:52:54.468Z,510.00
2023-03-24T00:53:44.562Z,505.00
2023-03-24T00:54:34.585Z,508.00
2023-03-24T00:55:24.654Z,506.00
2023-03-24T00:56:14.886Z,508.00
2023-03-24T00:57:05.014Z,502.00
2023-03-24T00:57:55.008Z,505.00
2023-03-24T00:58:45.091Z,507.00
2023-03-24T00:59:35.123Z,512.00
2023-03-24T01:00:25.182Z,505.00
2023-03-24T01:01:15.255Z,509.00
2023-03-24T01:02:05.342Z,511.00
2023-03-24T01:02:55.474Z,506.00
2023-03-24T01:03:45.452Z,503.00
2023-03-24T01:04:35.472Z,504.00
2023-03-24T01:05:25.809Z,512.00
2023-03-24T01:06:15.884Z,512.00
2023-03-24T01:07:05.929Z,509.00
2023-03-24T01:07:56.252Z,506.00
2023-03-24T01:08:46.358Z,506.00
2023-03-24T01:09:36.406Z,502.00
2023-03-24T01:10:26.747Z,515.00
2023-03-24T01:11:16.506Z,509.00
2023-03-24T01:12:06.657Z,512.00
2023-03-24T01:12:56.735Z,512.00
2023-03-24T01:13:46.805Z,511.00
2023-03-24T01:14:37.106Z,516.00
2023-03-24T01:15:27.175Z,524.00
2023-03-24T01:16:17.252Z,518.00
2023-03-24T01:17:07.304Z,510.00
2023-03-24T01:17:57.387Z,513.00
2023-03-24T01:18:47.460Z,513.00
2023-03-24T01:19:37.480Z,520.00
2023-03-24T01:20:27.544Z,514.00
2023-03-24T01:21:17.620Z,517.00
2023-03-24T01:22:07.708Z,510.00
2023-03-24T01:22:57.739Z,505.00
2023-03-24T01:23:47.967Z,512.00
2023-03-24T01:24:37.999Z,519.00
2023-03-24T01:25:28.075Z,518.00
2023-03-24T01:26:18.374Z,520.00
2023-03-24T01:27:08.458Z,511.00
2023-03-24T01:27:58.519Z,506.00
2023-03-24T01:28:48.594Z,516.00
2023-03-24T01:29:38.615Z,512.00
2023-03-24T01:30:28.701Z,505.00
2023-03-24T01:31:18.733Z,504.00
2023-03-24T01:32:08.770Z,511.00
2023-03-24T01:32:58.892Z,509.00
2023-03-24T01:33:48.918Z,505.00
2023-03-24T01:34:38.947Z,507.00
2023-03-24T01:35:29.532Z,500.00
2023-03-24T01:36:19.099Z,505.00
2023-03-24T01:37:09.142Z,510.00
2023-03-24T01:37:59.216Z,514.00
2023-03-24T01:38:49.300Z,509.00
2023-03-24T01:39:39.360Z,511.00
2023-03-24T01:40:29.421Z,512.00
2023-03-24T01:41:19.464Z,514.00
2023-03-24T01:42:09.532Z,509.00
2023-03-24T01:42:59.594Z,510.00
2023-03-24T01:43:49.806Z,510.00
2023-03-24T01:44:39.826Z,509.00
2023-03-24T01:45:29.896Z,500.00
2023-03-24T01:46:20.045Z,505.00
2023-03-24T01:47:10.025Z,521.00
2023-03-24T01:48:00.157Z,510.00
2023-03-24T01:48:50.210Z,510.00
2023-03-24T01:49:40.208Z,509.00
2023-03-24T01:50:30.283Z,515.00
2023-03-24T01:51:20.317Z,511.00
2023-03-24T01:52:10.391Z,501.00
2023-03-24T01:53:00.701Z,509.00
2023-03-24T01:53:50.822Z,505.00
2023-03-24T01:54:40.815Z,512.00
2023-03-24T01:55:30.874Z,512.00
2023-03-24T01:56:20.937Z,512.00
2023-03-24T01:57:11.026Z,508.00
2023-03-24T01:58:01.063Z,507.00
2023-03-24T01:58:51.157Z,507.00
2023-03-24T01:59:41.181Z,513.00
2023-03-24T02:00:31.258Z,510.00
2023-03-24T02:01:21.307Z,505.00
2023-03-24T02:02:11.587Z,506.00
2023-03-24T02:03:01.698Z,510.00
2023-03-24T02:03:51.763Z,508.00
2023-03-24T02:04:41.741Z,508.00
2023-03-24T02:05:31.815Z,514.00
2023-03-24T02:06:21.878Z,512.00
2023-03-24T02:07:11.958Z,509.00
2023-03-24T02:08:01.981Z,512.00
2023-03-24T02:08:52.070Z,521.00
2023-03-24T02:09:42.103Z,523.00
2023-03-24T02:10:32.154Z,513.00
2023-03-24T02:11:22.390Z,509.00
2023-03-24T02:12:12.462Z,515.00
2023-03-24T02:13:02.524Z,514.00
2023-03-24T02:13:52.835Z,513.00
2023-03-24T02:14:42.852Z,514.00
2023-03-24T02:15:32.922Z,516.00
2023-03-24T02:16:23.283Z,507.00
2023-03-24T02:17:13.304Z,511.00
2023-03-24T02:18:03.416Z,512.00
2023-03-24T02:18:53.441Z,508.00
2023-03-24T02:19:43.455Z,515.00
2023-03-24T02:20:33.529Z,516.00
2023-03-24T02:21:23.587Z,525.00
2023-03-24T02:22:13.658Z,535.00
2023-03-24T02:23:03.696Z,534.00
2023-03-24T02:23:53.789Z,533.00
2023-03-24T02:24:43.812Z,516.00
2023-03-24T02:25:33.899Z,523.00
2023-03-24T02:26:23.959Z,514.00
2023-03-24T02:27:14.025Z,518.00
2023-03-24T02:28:04.088Z,514.00
2023-03-24T02:28:54.198Z,513.00
2023-03-24T02:29:44.208Z,512.00
2023-03-24T02:30:34.273Z,516.00
2023-03-24T02:31:24.409Z,513.00
2023-03-24T02:32:14.587Z,521.00
2023-03-24T02:33:04.664Z,521.00
2023-03-24T02:33:54.703Z,510.00
2023-03-24T02:34:44.748Z,519.00
2023-03-24T02:35:34.808Z,525.00
2023-03-24T02:36:26.326Z,523.00
2023-03-24T02:37:14.944Z,525.00
2023-03-24T02:38:05.014Z,523.00
2023-03-24T02:38:55.125Z,517.00
2023-03-24T02:39:45.149Z,505.00
2023-03-24T02:40:35.260Z,509.00
2023-03-24T02:41:25.352Z,504.00
2023-03-24T02:42:15.384Z,521.00
2023-03-24T02:43:05.447Z,517.00
2023-03-24T02:43:55.802Z,525.00
2023-03-24T02:44:45.821Z,527.00
2023-03-24T02:45:35.978Z,518.00
2023-03-24T02:46:26.022Z,511.00
2023-03-24T02:47:15.997Z,516.00
2023-03-24T02:48:56.141Z,511.00
2023-03-24T02:49:46.149Z,506.00
2023-03-24T02:50:36.222Z,518.00
2023-03-24T02:51:26.246Z,510.00
2023-03-24T02:52:16.312Z,529.00
2023-03-24T02:53:06.641Z,520.00
2023-03-24T02:53:56.721Z,518.00
2023-03-24T02:54:46.740Z,512.00
2023-03-24T02:55:36.816Z,509.00
2023-03-24T02:56:26.936Z,520.00
2023-03-24T02:57:16.950Z,508.00
2023-03-24T02:58:07.013Z,508.00
2023-03-24T02:58:57.106Z,501.00
2023-03-24T02:59:47.132Z,507.00
2023-03-24T03:00:37.188Z,509.00
2023-03-24T03:01:27.260Z,510.00
2023-03-24T03:02:17.491Z,513.00
2023-03-24T03:03:07.641Z,506.00
2023-03-24T03:03:57.688Z,502.00
2023-03-24T03:04:48.097Z,505.00
2023-03-24T03:05:38.023Z,511.00
2023-03-24T03:06:28.085Z,506.00
2023-03-24T03:07:18.376Z,503.00
2023-03-24T03:08:08.401Z,505.00
2023-03-24T03:08:58.489Z,504.00
2023-03-24T03:09:48.506Z,510.00
2023-03-24T03:10:38.577Z,512.00
2023-03-24T03:11:28.638Z,515.00
2023-03-24T03:12:18.729Z,515.00
2023-03-24T03:13:08.768Z,510.00
2023-03-24T03:13:58.858Z,502.00
2023-03-24T03:14:48.876Z,506.00
2023-03-24T03:15:38.996Z,504.00
2023-03-24T03:16:29.233Z,518.00
2023-03-24T03:17:19.332Z,518.00
2023-03-24T03:18:09.364Z,517.00
2023-03-24T03:18:59.437Z,511.00
2023-03-24T03:19:49.453Z,515.00
2023-03-24T03:20:39.548Z,513.00
2023-03-24T03:21:29.602Z,518.00
2023-03-24T03:22:19.653Z,525.00
2023-03-24T03:23:09.718Z,518.00
2023-03-24T03:23:59.793Z,522.00
2023-03-24T03:24:49.805Z,514.00
2023-03-24T03:25:39.879Z,520.00
2023-03-24T03:26:29.949Z,516.00
2023-03-24T03:27:20.037Z,515.00
2023-03-24T03:28:10.065Z,503.00
2023-03-24T03:29:00.165Z,511.00
2023-03-24T03:29:50.404Z,513.00
2023-03-24T03:30:40.457Z,516.00
2023-03-24T03:31:30.560Z,510.00
2023-03-24T03:32:20.586Z,513.00
2023-03-24T03:33:10.705Z,509.00
2023-03-24T03:34:00.719Z,508.00
2023-03-24T03:34:50.748Z,501.00
2023-03-24T03:35:40.846Z,518.00
2023-03-24T03:36:30.878Z,512.00
2023-03-24T03:37:20.948Z,514.00
2023-03-24T03:38:11.035Z,512.00
2023-03-24T03:39:01.321Z,518.00
2023-03-24T03:39:51.342Z,505.00
2023-03-24T03:40:41.412Z,523.00
2023-03-24T03:41:31.745Z,531.00
2023-03-24T03:42:21.791Z,522.00
2023-03-24T03:43:11.842Z,519.00
2023-03-24T03:44:02.228Z,521.00
2023-03-24T03:44:52.225Z,518.00
2023-03-24T03:45:42.438Z,517.00
2023-03-24T03:46:32.371Z,512.00
2023-03-24T03:47:22.415Z,521.00
2023-03-24T03:48:12.532Z,522.00
2023-03-24T03:49:02.580Z,522.00
2023-03-24T03:49:52.615Z,520.00
2023-03-24T03:50:42.693Z,521.00
2023-03-24T03:51:32.715Z,510.00
2023-03-24T03:52:22.797Z,511.00
2023-03-24T03:53:13.030Z,516.00
2023-03-24T03:54:03.123Z,524.00
2023-03-24T03:54:53.169Z,520.00
2023-03-24T03:55:43.492Z,531.00
2023-03-24T03:56:33.293Z,528.00
2023-03-24T03:57:23.418Z,511.00
2023-03-24T03:58:13.452Z,515.00
2023-03-24T03:59:03.506Z,511.00
2023-03-24T03:59:53.552Z,514.00
2023-03-24T04:00:43.618Z,518.00
2023-03-24T04:01:33.674Z,519.00
2023-03-24T04:02:23.746Z,524.00
2023-03-24T04:03:13.797Z,514.00
2023-03-24T04:04:03.868Z,521.00
2023-03-24T04:05:05.226Z,516.00
2023-03-24T04:05:45.144Z,516.00
2023-03-24T04:06:33.998Z,512.00
2023-03-24T04:07:24.102Z,516.00
2023-03-24T04:08:14.146Z,513.00
2023-03-24T04:09:04.328Z,511.00
2023-03-24T04:09:54.336Z,510.00
2023-03-24T04:10:44.372Z,511.00
2023-03-24T04:11:34.443Z,509.00
2023-03-24T04:12:24.466Z,509.00
2023-03-24T04:13:14.553Z,505.00
2023-03-24T04:14:04.600Z,501.00
2023-03-24T04:14:54.637Z,510.00
2023-03-24T04:15:44.939Z,507.00
2023-03-24T04:16:34.906Z,504.00
2023-03-24T04:17:24.815Z,509.00
2023-03-24T04:18:14.870Z,504.00
2023-03-24T04:19:04.959Z,506.00
2023-03-24T04:19:54.985Z,503.00
2023-03-24T04:20:45.064Z,517.00
2023-03-24T04:21:35.132Z,512.00
2023-03-24T04:22:25.158Z,511.00
2023-03-24T04:23:15.226Z,501.00
2023-03-24T04:24:05.330Z,511.00
2023-03-24T04:24:55.623Z,512.00
2023-03-24T04:25:45.783Z,509.00
2023-03-24T04:26:35.724Z,511.00
2023-03-24T04:27:26.053Z,501.00
2023-03-24T04:28:16.136Z,508.00
2023-03-24T04:29:06.172Z,521.00
2023-03-24T04:29:56.210Z,521.00
2023-03-24T04:30:46.278Z,516.00
2023-03-24T04:31:36.409Z,522.00
2023-03-24T04:32:26.409Z,518.00
2023-03-24T04:33:16.429Z,521.00
2023-03-24T04:34:06.467Z,529.00
2023-03-24T04:34:56.509Z,518.00
2023-03-24T04:35:46.817Z,522.00
2023-03-24T04:36:36.620Z,523.00
2023-03-24T04:37:26.692Z,529.00
2023-03-24T04:38:16.769Z,524.00
2023-03-24T04:39:06.825Z,532.00
2023-03-24T04:39:56.862Z,530.00
2023-03-24T04:40:47.126Z,522.00
2023-03-24T04:41:36.936Z,527.00
2023-03-24T04:42:26.969Z,528.00
2023-03-24T04:43:17.057Z,525.00
2023-03-24T04:44:07.104Z,529.00
2023-03-24T04:44:57.134Z,532.00
2023-03-24T04:45:47.566Z,533.00
2023-03-24T04:46:37.211Z,532.00
2023-03-24T04:47:27.596Z,523.00
2023-03-24T04:48:17.576Z,524.00
2023-03-24T04:49:07.616Z,530.00
2023-03-24T04:49:57.650Z,526.00
2023-03-24T04:50:47.688Z,520.00
2023-03-24T04:51:37.746Z,527.00
2023-03-24T04:52:27.822Z,527.00
2023-03-24T04:53:17.893Z,539.00
2023-03-24T04:54:07.983Z,528.00
2023-03-24T04:54:58.016Z,524.00
2023-03-24T04:55:48.039Z,521.00
2023-03-24T04:56:38.128Z,518.00
2023-03-24T04:57:28.183Z,526.00
2023-03-24T04:58:18.265Z,522.00
2023-03-24T04:59:08.314Z,525.00
2023-03-24T04:59:58.335Z,516.00
2023-03-24T05:00:48.367Z,529.00
2023-03-24T05:01:38.450Z,535.00
2023-03-24T05:02:28.517Z,521.00
2023-03-24T05:03:18.873Z,523.00
2023-03-24T05:04:08.902Z,519.00
2023-03-24T05:04:58.937Z,528.00
2023-03-24T05:05:49.008Z,523.00
2023-03-24T05:06:39.067Z,517.00
2023-03-24T05:07:29.131Z,514.00
2023-03-24T05:08:19.219Z,515.00
2023-03-24T05:09:09.299Z,506.00
2023-03-24T05:09:59.339Z,508.00
2023-03-24T05:10:49.370Z,504.00
2023-03-24T05:11:39.429Z,508.00
2023-03-24T05:12:29.712Z,509.00
2023-03-24T05:13:19.788Z,508.00
2023-03-24T05:14:09.900Z,506.00
2023-03-24T05:14:59.906Z,500.00
2023-03-24T05:15:49.977Z,514.00
2023-03-24T05:16:40.107Z,511.00
2023-03-24T05:17:30.188Z,514.00
2023-03-24T05:18:20.129Z,516.00
2023-03-24T05:19:10.207Z,510.00
2023-03-24T05:20:00.210Z,514.00
2023-03-24T05:20:50.281Z,506.00
2023-03-24T05:21:40.368Z,505.00
2023-03-24T05:22:30.385Z,503.00
2023-03-24T05:23:20.462Z,503.00
2023-03-24T05:24:10.541Z,504.00
2023-03-24T05:25:00.574Z,499.00
2023-03-24T05:25:50.672Z,529.00
2023-03-24T05:26:40.722Z,516.00
2023-03-24T05:27:30.783Z,524.00
2023-03-24T05:28:21.089Z,520.00
2023-03-24T05:29:11.141Z,516.00
2023-03-24T05:30:01.155Z,525.00
2023-03-24T05:30:51.258Z,523.00
2023-03-24T05:31:41.288Z,523.00
2023-03-24T05:32:31.336Z,515.00
2023-03-24T05:33:21.349Z,517.00
2023-03-24T05:34:11.397Z,519.00
2023-03-24T05:35:01.504Z,511.00
2023-03-24T05:35:51.545Z,511.00
2023-03-24T05:36:41.565Z,522.00
2023-03-24T05:37:31.589Z,515.00
2023-03-24T05:38:21.666Z,510.00
2023-03-24T05:39:11.725Z,510.00
2023-03-24T05:40:01.758Z,507.00
2023-03-24T05:40:51.786Z,509.00
2023-03-24T05:41:41.872Z,522.00
2023-03-24T05:42:31.901Z,521.00
2023-03-24T05:43:21.983Z,518.00
2023-03-24T05:44:12.031Z,513.00
2023-03-24T05:45:02.080Z,515.00
2023-03-24T05:45:52.117Z,515.00
2023-03-24T05:46:42.194Z,517.00
2023-03-24T05:47:32.240Z,517.00
2023-03-24T05:48:22.293Z,510.00
2023-03-24T05:49:12.373Z,506.00
2023-03-24T05:50:02.413Z,501.00
2023-03-24T05:50:52.711Z,504.00
2023-03-24T05:51:42.733Z,507.00
2023-03-24T05:52:32.808Z,500.00
2023-03-24T05:53:22.875Z,507.00
2023-03-24T05:54:12.918Z,504.00
2023-03-24T05:55:02.963Z,504.00
2023-03-24T05:55:53.022Z,510.00
2023-03-24T05:56:43.111Z,525.00
2023-03-24T05:57:33.163Z,519.00
2023-03-24T05:58:23.248Z,520.00
2023-03-24T05:59:13.293Z,521.00
2023-03-24T06:00:03.543Z,520.00
2023-03-24T06:00:53.608Z,512.00
2023-03-24T06:01:43.699Z,514.00
2023-03-24T06:02:34.090Z,507.00
2023-03-24T06:03:24.204Z,516.00
2023-03-24T06:04:14.214Z,526.00
2023-03-24T06:05:04.184Z,529.00
2023-03-24T06:05:54.255Z,525.00
2023-03-24T06:06:44.361Z,524.00
2023-03-24T06:07:34.361Z,520.00
2023-03-24T06:08:24.441Z,517.00
2023-03-24T06:09:14.489Z,520.00
2023-03-24T06:10:04.528Z,520.00
2023-03-24T06:10:54.556Z,529.00
2023-03-24T06:11:44.888Z,524.00
2023-03-24T06:12:34.915Z,518.00
2023-03-24T06:13:24.990Z,508.00
2023-03-24T06:14:15.033Z,520.00
2023-03-24T06:15:05.069Z,514.00
2023-03-24T06:15:55.128Z,530.00
2023-03-24T06:16:45.148Z,515.00
2023-03-24T06:17:35.186Z,514.00
2023-03-24T06:18:25.251Z,524.00
2023-03-24T06:19:15.335Z,529.00
2023-03-24T06:20:05.363Z,524.00
2023-03-24T06:20:55.687Z,517.00
2023-03-24T06:21:45.760Z,516.00
2023-03-24T06:22:35.849Z,513.00
2023-03-24T06:23:25.980Z,521.00
2023-03-24T06:24:15.986Z,530.00
2023-03-24T06:25:06.025Z,527.00
2023-03-24T06:25:56.050Z,528.00
2023-03-24T06:26:46.116Z,525.00
2023-03-24T06:27:36.179Z,516.00
2023-03-24T06:28:26.281Z,523.00
2023-03-24T06:29:16.308Z,533.00
2023-03-24T06:30:06.341Z,538.00
2023-03-24T06:30:56.408Z,538.00
2023-03-24T06:31:46.442Z,533.00
2023-03-24T06:32:36.526Z,522.00
2023-03-24T06:33:26.577Z,532.00
2023-03-24T06:34:16.653Z,525.00
2023-03-24T06:35:06.685Z,525.00
2023-03-24T06:35:56.828Z,527.00
2023-03-24T06:36:46.997Z,532.00
2023-03-24T06:37:37.066Z,529.00
2023-03-24T06:38:27.166Z,519.00
2023-03-24T06:39:17.441Z,527.00
2023-03-24T06:40:07.479Z,517.00
2023-03-24T06:40:57.505Z,517.00
2023-03-24T06:41:47.585Z,519.00
2023-03-24T06:42:37.620Z,513.00
2023-03-24T06:43:27.692Z,514.00
2023-03-24T06:44:17.756Z,512.00
2023-03-24T06:45:07.804Z,517.00
2023-03-24T06:45:57.848Z,512.00
2023-03-24T06:46:48.001Z,504.00
2023-03-24T06:47:38.078Z,516.00
2023-03-24T06:48:28.038Z,503.00
2023-03-24T06:49:18.124Z,511.00
2023-03-24T06:50:08.153Z,507.00
2023-03-24T06:50:58.219Z,510.00
2023-03-24T06:51:48.304Z,519.00
2023-03-24T06:52:38.379Z,514.00
2023-03-24T06:53:28.393Z,513.00
2023-03-24T06:54:18.507Z,521.00
2023-03-24T06:55:08.732Z,503.00
2023-03-24T06:55:58.765Z,508.00
2023-03-24T06:56:48.871Z,514.00
2023-03-24T06:57:38.906Z,518.00
2023-03-24T06:58:28.978Z,516.00
2023-03-24T06:59:19.070Z,521.00
2023-03-24T07:00:09.108Z,518.00
2023-03-24T07:00:59.130Z,518.00
2023-03-24T07:01:49.243Z,509.00
2023-03-24T07:02:39.363Z,511.00
2023-03-24T07:03:29.446Z,502.00
2023-03-24T07:04:19.648Z,511.00
2023-03-24T07:05:09.694Z,511.00
2023-03-24T07:05:59.718Z,515.00
2023-03-24T07:07:05.084Z,522.00
2023-03-24T07:08:16.825Z,522.00
2023-03-24T07:08:37.982Z,522.00
2023-03-24T07:09:21.043Z,518.00
2023-03-24T07:10:10.060Z,522.00
2023-03-24T07:11:00.136Z,516.00
2023-03-24T07:11:50.159Z,525.00
2023-03-24T07:12:40.229Z,524.00
2023-03-24T07:13:30.264Z,522.00
2023-03-24T07:14:20.336Z,533.00
2023-03-24T07:15:10.503Z,528.00
2023-03-24T07:16:00.603Z,542.00
2023-03-24T07:16:50.649Z,539.00
2023-03-24T07:17:40.673Z,544.00
2023-03-24T07:18:30.725Z,543.00
2023-03-24T07:19:20.760Z,535.00
2023-03-24T07:20:10.832Z,559.00
2023-03-24T07:21:00.863Z,555.00
2023-03-24T07:21:50.947Z,555.00
2023-03-24T07:22:40.968Z,545.00
2023-03-24T07:23:31.054Z,533.00
2023-03-24T07:24:21.298Z,539.00
2023-03-24T07:25:11.417Z,531.00
2023-03-24T07:26:01.435Z,526.00
2023-03-24T07:26:51.522Z,520.00
2023-03-24T07:27:42.963Z,532.00
2023-03-24T07:28:31.704Z,529.00
2023-03-24T07:29:21.771Z,518.00
2023-03-24T07:30:11.848Z,507.00
2023-03-24T07:31:02.263Z,500.00
2023-03-24T07:31:52.263Z,507.00
2023-03-24T07:32:42.318Z,511.00
2023-03-24T07:33:32.320Z,509.00
2023-03-24T07:34:22.386Z,506.00
2023-03-24T07:35:12.479Z,503.00
2023-03-24T07:36:02.554Z,501.00
2023-03-24T07:36:52.572Z,506.00
2023-03-24T07:37:42.651Z,511.00
2023-03-24T07:38:32.705Z,516.00
2023-03-24T07:39:23.080Z,516.00
2023-03-24T07:40:12.919Z,514.00
2023-03-24T07:41:02.883Z,514.00
2023-03-24T07:41:52.929Z,513.00
2023-03-24T07:42:42.999Z,519.00
2023-03-24T07:43:33.326Z,516.00
2023-03-24T07:44:23.349Z,518.00
2023-03-24T07:45:13.480Z,510.00
2023-03-24T07:46:03.521Z,518.00
2023-03-24T07:46:53.578Z,518.00
2023-03-24T07:47:43.633Z,516.00
2023-03-24T07:48:33.734Z,512.00
2023-03-24T07:49:23.687Z,521.00
2023-03-24T07:50:13.778Z,509.00
2023-03-24T07:51:03.806Z,514.00
2023-03-24T07:51:53.843Z,509.00
2023-03-24T07:52:43.883Z,502.00
2023-03-24T07:53:34.096Z,503.00
2023-03-24T07:54:23.945Z,504.00
2023-03-24T07:55:14.042Z,504.00
2023-03-24T07:56:04.086Z,505.00
2023-03-24T07:56:54.245Z,507.00
2023-03-24T07:57:44.182Z,510.00
2023-03-24T07:58:34.248Z,516.00
2023-03-24T07:59:26.638Z,514.00
2023-03-24T08:00:14.406Z,521.00
2023-03-24T08:01:04.423Z,516.00
2023-03-24T08:01:57.572Z,518.00
2023-03-24T08:02:44.635Z,518.00
2023-03-24T08:03:34.793Z,520.00
2023-03-24T08:04:24.678Z,519.00
2023-03-24T08:05:14.764Z,511.00
2023-03-24T08:06:04.822Z,516.00
2023-03-24T08:06:54.960Z,535.00
2023-03-24T08:07:45.046Z,519.00
2023-03-24T08:08:35.105Z,510.00
2023-03-24T08:09:25.386Z,518.00
2023-03-24T08:10:15.457Z,516.00
2023-03-24T08:11:05.488Z,523.00
2023-03-24T08:11:55.550Z,528.00
2023-03-24T08:12:45.636Z,509.00
2023-03-24T08:13:35.700Z,523.00
2023-03-24T08:14:26.336Z,516.00
2023-03-24T08:15:15.854Z,517.00
2023-03-24T08:16:06.097Z,507.00
2023-03-24T08:16:56.234Z,515.00
2023-03-24T08:17:46.240Z,505.00
2023-03-24T08:18:36.295Z,513.00
2023-03-24T08:19:26.545Z,514.00
2023-03-24T08:20:16.465Z,518.00
2023-03-24T08:21:06.517Z,515.00
2023-03-24T08:21:56.560Z,519.00
2023-03-24T08:22:46.634Z,519.00
2023-03-24T08:23:36.713Z,524.00
2023-03-24T08:24:26.733Z,520.00
2023-03-24T08:25:17.039Z,526.00
2023-03-24T08:26:07.055Z,528.00
2023-03-24T08:26:57.137Z,521.00
2023-03-24T08:27:47.304Z,522.00
2023-03-24T08:28:37.206Z,523.00
2023-03-24T08:29:27.275Z,524.00
2023-03-24T08:30:17.368Z,517.00
2023-03-24T08:31:07.463Z,511.00
2023-03-24T08:31:57.586Z,512.00
2023-03-24T08:32:47.696Z,509.00
2023-03-24T08:33:37.736Z,511.00
2023-03-24T08:34:28.034Z,508.00
2023-03-24T08:35:18.212Z,516.00
2023-03-24T08:36:08.206Z,508.00
2023-03-24T08:36:58.187Z,526.00
2023-03-24T08:37:48.260Z,512.00
2023-03-24T08:38:38.326Z,513.00
2023-03-24T08:39:28.391Z,505.00
2023-03-24T08:40:18.523Z,511.00
2023-03-24T08:41:08.516Z,515.00
2023-03-24T08:41:58.574Z,515.00
2023-03-24T08:42:48.655Z,510.00
2023-03-24T08:43:39.002Z,512.00
2023-03-24T08:44:30.241Z,514.00
2023-03-24T08:45:19.136Z,514.00
2023-03-24T08:46:11.197Z,512.00
2023-03-24T08:46:59.221Z,507.00
2023-03-24T08:47:49.345Z,505.00
2023-03-24T08:48:39.328Z,509.00
2023-03-24T08:49:29.387Z,512.00
2023-03-24T08:50:19.510Z,504.00
2023-03-24T08:51:09.511Z,504.00
2023-03-24T08:51:59.559Z,511.00
2023-03-24T08:52:49.598Z,510.00
2023-03-24T08:53:39.651Z,513.00
2023-03-24T08:54:29.725Z,505.00
2023-03-24T08:55:19.815Z,500.00
2023-03-24T08:56:09.829Z,508.00
2023-03-24T08:56:59.960Z,510.00
2023-03-24T08:57:49.942Z,516.00
2023-03-24T08:58:40.005Z,506.00
2023-03-24T08:59:30.066Z,507.00
2023-03-24T09:00:20.143Z,507.00
2023-03-24T09:01:10.266Z,513.00
2023-03-24T09:02:00.365Z,509.00
2023-03-24T09:02:50.379Z,519.00
2023-03-24T09:03:40.382Z,527.00
2023-03-24T09:04:30.454Z,529.00
2023-03-24T09:05:26.727Z,529.00
2023-03-24T09:06:11.529Z,518.00
2023-03-24T09:07:02.949Z,526.00
2023-03-24T09:07:50.620Z,524.00
2023-03-24T09:08:40.696Z,530.00
2023-03-24T09:09:30.736Z,522.00
2023-03-24T09:10:20.815Z,520.00
2023-03-24T09:11:10.847Z,531.00
2023-03-24T09:12:00.923Z,529.00
2023-03-24T09:12:50.960Z,529.00
2023-03-24T09:13:41.024Z,534.00
2023-03-24T09:14:31.063Z,523.00
2023-03-24T09:15:21.158Z,529.00
2023-03-24T09:16:11.166Z,524.00
2023-03-24T09:17:01.221Z,529.00
2023-03-24T09:17:51.474Z,539.00
2023-03-24T09:18:41.349Z,527.00
2023-03-24T09:19:31.413Z,531.00
2023-03-24T09:20:21.511Z,532.00
2023-03-24T09:21:11.537Z,530.00
2023-03-24T09:22:01.611Z,541.00
2023-03-24T09:22:51.685Z,541.00
2023-03-24T09:23:41.715Z,531.00
2023-03-24T09:24:31.740Z,518.00
2023-03-24T09:25:22.057Z,520.00
2023-03-24T09:26:12.061Z,523.00
2023-03-24T09:27:02.133Z,521.00
2023-03-24T09:27:52.157Z,526.00
2023-03-24T09:28:42.233Z,513.00
2023-03-24T09:29:32.298Z,514.00
2023-03-24T09:30:22.407Z,518.00
2023-03-24T09:31:12.503Z,520.00
2023-03-24T09:32:02.457Z,519.00
2023-03-24T09:32:52.518Z,522.00
2023-03-24T09:33:42.545Z,531.00
2023-03-24T09:34:32.569Z,524.00
2023-03-24T09:35:22.664Z,523.00
2023-03-24T09:36:12.707Z,533.00
2023-03-24T09:37:02.761Z,526.00
2023-03-24T09:37:52.785Z,526.00
2023-03-24T09:38:42.862Z,522.00
2023-03-24T09:39:32.884Z,532.00
2023-03-24T09:40:23.062Z,529.00
2023-03-24T09:41:13.007Z,527.00
2023-03-24T09:42:03.087Z,535.00
2023-03-24T09:42:53.111Z,531.00
2023-03-24T09:43:43.172Z,539.00
2023-03-24T09:44:33.193Z,543.00
2023-03-24T09:45:23.287Z,530.00
2023-03-24T09:46:13.325Z,535.00
2023-03-24T09:47:03.443Z,543.00
2023-03-24T09:47:53.445Z,533.00
2023-03-24T09:48:43.492Z,534.00
2023-03-24T09:49:33.543Z,543.00
2023-03-24T09:50:23.681Z,540.00
2023-03-24T09:51:13.669Z,541.00
2023-03-24T09:52:03.742Z,541.00
2023-03-24T09:52:53.808Z,542.00
2023-03-24T09:53:43.891Z,532.00
2023-03-24T09:54:34.171Z,532.00
2023-03-24T09:55:24.285Z,533.00
2023-03-24T09:56:14.308Z,545.00
2023-03-24T09:57:04.423Z,532.00
2023-03-24T09:57:54.451Z,540.00
2023-03-24T09:58:44.528Z,535.00
2023-03-24T09:59:34.590Z,533.00
2023-03-24T10:00:24.722Z,527.00
2023-03-24T10:01:14.783Z,531.00
2023-03-24T10:02:04.783Z,532.00
2023-03-24T10:02:57.366Z,530.00
2023-03-24T10:03:44.995Z,530.00
2023-03-24T10:04:34.913Z,529.00
2023-03-24T10:05:25.021Z,527.00
2023-03-24T10:06:15.058Z,528.00
2023-03-24T10:07:05.138Z,524.00
2023-03-24T10:07:55.173Z,525.00
2023-03-24T10:08:45.269Z,527.00
2023-03-24T10:09:35.302Z,538.00
2023-03-24T10:10:25.398Z,539.00
2023-03-24T10:11:15.427Z,544.00
2023-03-24T10:12:05.504Z,545.00
2023-03-24T10:12:55.570Z,539.00
2023-03-24T10:13:45.639Z,558.00
2023-03-24T10:14:35.712Z,549.00
2023-03-24T10:15:37.230Z,555.00
2023-03-24T10:16:16.885Z,548.00
2023-03-24T10:17:05.900Z,555.00
2023-03-24T10:17:56.005Z,558.00
2023-03-24T10:18:46.069Z,550.00
2023-03-24T10:19:36.066Z,559.00
2023-03-24T10:20:26.180Z,556.00
2023-03-24T10:21:16.187Z,554.00
2023-03-24T10:22:06.364Z,556.00
2023-03-24T10:22:56.412Z,559.00
2023-03-24T10:23:46.489Z,549.00
2023-03-24T10:24:38.410Z,553.00
2023-03-24T10:25:26.874Z,549.00
2023-03-24T10:26:16.912Z,553.00